Portada
METAR-TAF:

METAR-TAF

Aeropuertos :

Aeropuerto de Wasilla

Wasilla, Alaska, Estados Unidos

latitud: 61-34-19N, longitud: 149-32-26W, altitud: 106 m

Observación

El informe se hizo hace 29 minutos, a las 06:56 UTC
Viento 5 kt del noreste
Temperatura 9°C
Humedad 61%
Presión 1018 hPa
Visibilidad: 16.1 km
Cielo nuboso a una altura de 5500 ft
Cielo cubierto a una altura de 7000 ft

METAR: PAWS 300656Z AUTO 04005KT 10SM BKN055 OVC070 09/02 A3006 RMK AO2 SLP182 T00940022

Hora: 23:25 (07:25 UTC)


TAF: falta

Observaciones y pronósticos meteorológicos de más de 4000 aeropuertos (mensajes METAR y TAF).

Los puntos amarillos y rojos representan las estaciones disponibles.

Ponga el ratón en el punto deseado para ver el nombre de la estación.

Haga clic para ver las observaciones y los pronósticos meteorológicos.

Para cambiar el mapa : haga clic en los botones verdes con una cruz de color negro para hacer un zoom, en el botón verde con un guión para alejar o en las flechas verdes para mapas adyacentes.


METAR-TAF: